sensor_id;sensor_type;location;lat;lon;timestamp;temperature;humidity
8338;DHT22;4206;48.634;9.516;2023-01-28T00:01:44;-0.50;99.90
8338;DHT22;4206;48.634;9.516;2023-01-28T00:04:10;-0.50;99.90
8338;DHT22;4206;48.634;9.516;2023-01-28T00:06:35;-0.50;99.90
8338;DHT22;4206;48.634;9.516;2023-01-28T00:09:02;-0.50;99.90
8338;DHT22;4206;48.634;9.516;2023-01-28T00:11:28;-0.50;99.90
8338;DHT22;4206;48.634;9.516;2023-01-28T00:13:53;-0.50;99.90
8338;DHT22;4206;48.634;9.516;2023-01-28T00:16:20;-0.50;99.90
8338;DHT22;4206;48.634;9.516;2023-01-28T00:18:47;-0.50;99.90
8338;DHT22;4206;48.634;9.516;2023-01-28T00:21:14;-0.50;99.90
8338;DHT22;4206;48.634;9.516;2023-01-28T00:23:41;-0.50;99.90
8338;DHT22;4206;48.634;9.516;2023-01-28T00:26:12;-0.50;99.90
8338;DHT22;4206;48.634;9.516;2023-01-28T00:28:40;-0.40;99.90
8338;DHT22;4206;48.634;9.516;2023-01-28T00:31:13;-0.50;99.90
8338;DHT22;4206;48.634;9.516;2023-01-28T00:33:40;-0.40;99.90
8338;DHT22;4206;48.634;9.516;2023-01-28T00:36:06;-0.40;99.90
8338;DHT22;4206;48.634;9.516;2023-01-28T00:38:33;-0.40;99.90
8338;DHT22;4206;48.634;9.516;2023-01-28T00:41:14;-0.40;99.90
8338;DHT22;4206;48.634;9.516;2023-01-28T00:43:41;-0.50;99.90
8338;DHT22;4206;48.634;9.516;2023-01-28T00:46:09;-0.50;99.90
8338;DHT22;4206;48.634;9.516;2023-01-28T00:48:36;-0.50;99.90
8338;DHT22;4206;48.634;9.516;2023-01-28T00:51:02;-0.50;99.90
8338;DHT22;4206;48.634;9.516;2023-01-28T00:53:28;-0.50;99.90
8338;DHT22;4206;48.634;9.516;2023-01-28T00:55:54;-0.50;99.90
8338;DHT22;4206;48.634;9.516;2023-01-28T00:58:20;-0.50;99.90
8338;DHT22;4206;48.634;9.516;2023-01-28T01:00:48;-0.50;99.90
8338;DHT22;4206;48.634;9.516;2023-01-28T01:03:14;-0.50;99.90
8338;DHT22;4206;48.634;9.516;2023-01-28T01:05:40;-0.50;99.90
8338;DHT22;4206;48.634;9.516;2023-01-28T01:08:06;-0.50;99.90
8338;DHT22;4206;48.634;9.516;2023-01-28T01:10:31;-0.50;99.90
8338;DHT22;4206;48.634;9.516;2023-01-28T01:12:57;-0.50;99.90
8338;DHT22;4206;48.634;9.516;2023-01-28T01:15:23;-0.50;99.90
8338;DHT22;4206;48.634;9.516;2023-01-28T01:17:49;-0.50;99.90
8338;DHT22;4206;48.634;9.516;2023-01-28T01:20:18;-0.50;99.90
8338;DHT22;4206;48.634;9.516;2023-01-28T01:22:44;-0.50;99.90
8338;DHT22;4206;48.634;9.516;2023-01-28T01:25:12;-0.50;99.90
8338;DHT22;4206;48.634;9.516;2023-01-28T01:27:38;-0.50;99.90
8338;DHT22;4206;48.634;9.516;2023-01-28T01:30:04;-0.50;99.90
8338;DHT22;4206;48.634;9.516;2023-01-28T01:32:31;-0.50;99.90
8338;DHT22;4206;48.634;9.516;2023-01-28T01:34:59;-0.50;99.90
8338;DHT22;4206;48.634;9.516;2023-01-28T01:37:25;-0.50;99.90
8338;DHT22;4206;48.634;9.516;2023-01-28T01:39:51;-0.50;99.90
8338;DHT22;4206;48.634;9.516;2023-01-28T01:42:17;-0.50;99.90
8338;DHT22;4206;48.634;9.516;2023-01-28T01:44:54;-0.50;99.90
8338;DHT22;4206;48.634;9.516;2023-01-28T01:47:28;-0.50;99.90
8338;DHT22;4206;48.634;9.516;2023-01-28T01:50:01;-0.50;99.90
8338;DHT22;4206;48.634;9.516;2023-01-28T01:52:32;-0.50;99.90
8338;DHT22;4206;48.634;9.516;2023-01-28T01:55:02;-0.50;99.90
8338;DHT22;4206;48.634;9.516;2023-01-28T01:57:31;-0.50;99.90
8338;DHT22;4206;48.634;9.516;2023-01-28T01:59:58;-0.40;99.90
8338;DHT22;4206;48.634;9.516;2023-01-28T02:02:35;-0.50;99.90
8338;DHT22;4206;48.634;9.516;2023-01-28T02:05:02;-0.50;99.90
8338;DHT22;4206;48.634;9.516;2023-01-28T02:07:28;-0.50;99.90
8338;DHT22;4206;48.634;9.516;2023-01-28T02:09:54;-0.50;99.90
8338;DHT22;4206;48.634;9.516;2023-01-28T02:12:24;-0.50;99.90
8338;DHT22;4206;48.634;9.516;2023-01-28T02:14:55;-0.50;99.90
8338;DHT22;4206;48.634;9.516;2023-01-28T02:17:22;-0.50;99.90
8338;DHT22;4206;48.634;9.516;2023-01-28T02:19:56;-0.50;99.90
8338;DHT22;4206;48.634;9.516;2023-01-28T02:22:28;-0.50;99.90
8338;DHT22;4206;48.634;9.516;2023-01-28T02:28:07;-0.60;99.90
8338;DHT22;4206;48.634;9.516;2023-01-28T02:30:39;-0.60;99.90
8338;DHT22;4206;48.634;9.516;2023-01-28T02:33:15;-0.60;99.90
8338;DHT22;4206;48.634;9.516;2023-01-28T02:35:48;-0.60;99.90
8338;DHT22;4206;48.634;9.516;2023-01-28T02:38:22;-0.60;99.90
8338;DHT22;4206;48.634;9.516;2023-01-28T02:40:53;-0.60;99.90
8338;DHT22;4206;48.634;9.516;2023-01-28T02:43:43;-0.60;99.90
8338;DHT22;4206;48.634;9.516;2023-01-28T02:48:51;-0.60;99.90
8338;DHT22;4206;48.634;9.516;2023-01-28T02:51:32;-0.60;99.90
8338;DHT22;4206;48.634;9.516;2023-01-28T02:59:23;-0.60;99.90
8338;DHT22;4206;48.634;9.516;2023-01-28T03:07:43;-0.60;99.90
8338;DHT22;4206;48.634;9.516;2023-01-28T03:10:13;-0.60;99.90
8338;DHT22;4206;48.634;9.516;2023-01-28T03:12:43;-0.60;99.90
8338;DHT22;4206;48.634;9.516;2023-01-28T03:15:28;-0.60;99.90
8338;DHT22;4206;48.634;9.516;2023-01-28T03:21:05;-0.60;99.90
8338;DHT22;4206;48.634;9.516;2023-01-28T03:23:53;-0.60;99.90
8338;DHT22;4206;48.634;9.516;2023-01-28T03:26:42;-0.60;99.90
8338;DHT22;4206;48.634;9.516;2023-01-28T03:29:24;-0.60;99.90
8338;DHT22;4206;48.634;9.516;2023-01-28T03:32:06;-0.60;99.90
8338;DHT22;4206;48.634;9.516;2023-01-28T03:34:48;-0.60;99.90
8338;DHT22;4206;48.634;9.516;2023-01-28T03:37:29;-0.60;99.90
8338;DHT22;4206;48.634;9.516;2023-01-28T03:40:01;-0.60;99.90
8338;DHT22;4206;48.634;9.516;2023-01-28T03:42:27;-0.60;99.90
8338;DHT22;4206;48.634;9.516;2023-01-28T03:44:52;-0.60;99.90
8338;DHT22;4206;48.634;9.516;2023-01-28T03:47:22;-0.60;99.90
8338;DHT22;4206;48.634;9.516;2023-01-28T03:49:50;-0.60;99.90
8338;DHT22;4206;48.634;9.516;2023-01-28T03:52:19;-0.60;99.90
8338;DHT22;4206;48.634;9.516;2023-01-28T03:54:46;-0.60;99.90
8338;DHT22;4206;48.634;9.516;2023-01-28T03:57:15;-0.60;99.90
8338;DHT22;4206;48.634;9.516;2023-01-28T03:59:41;-0.60;99.90
8338;DHT22;4206;48.634;9.516;2023-01-28T04:02:08;-0.60;99.90
8338;DHT22;4206;48.634;9.516;2023-01-28T04:04:37;-0.60;99.90
8338;DHT22;4206;48.634;9.516;2023-01-28T04:07:02;-0.60;99.90
8338;DHT22;4206;48.634;9.516;2023-01-28T04:09:28;-0.60;99.90
8338;DHT22;4206;48.634;9.516;2023-01-28T04:11:54;-0.50;99.90
8338;DHT22;4206;48.634;9.516;2023-01-28T04:14:19;-0.50;99.90
8338;DHT22;4206;48.634;9.516;2023-01-28T04:16:45;-0.50;99.90
8338;DHT22;4206;48.634;9.516;2023-01-28T04:19:11;-0.50;99.90
8338;DHT22;4206;48.634;9.516;2023-01-28T04:21:38;-0.50;99.90
8338;DHT22;4206;48.634;9.516;2023-01-28T04:24:04;-0.50;99.90
8338;DHT22;4206;48.634;9.516;2023-01-28T04:26:30;-0.50;99.90
8338;DHT22;4206;48.634;9.516;2023-01-28T04:28:56;-0.40;99.90
8338;DHT22;4206;48.634;9.516;2023-01-28T04:31:21;-0.40;99.90
8338;DHT22;4206;48.634;9.516;2023-01-28T04:33:48;-0.40;99.90
8338;DHT22;4206;48.634;9.516;2023-01-28T04:36:14;-0.40;99.90
8338;DHT22;4206;48.634;9.516;2023-01-28T04:38:40;-0.40;99.90
8338;DHT22;4206;48.634;9.516;2023-01-28T04:41:06;-0.40;99.90
8338;DHT22;4206;48.634;9.516;2023-01-28T04:43:31;-0.40;99.90
8338;DHT22;4206;48.634;9.516;2023-01-28T04:45:57;-0.40;99.90
8338;DHT22;4206;48.634;9.516;2023-01-28T04:48:23;-0.30;99.90
8338;DHT22;4206;48.634;9.516;2023-01-28T04:50:48;-0.40;99.90
8338;DHT22;4206;48.634;9.516;2023-01-28T04:53:14;-0.40;99.90
8338;DHT22;4206;48.634;9.516;2023-01-28T04:55:40;-0.40;99.90
8338;DHT22;4206;48.634;9.516;2023-01-28T04:58:05;-0.40;99.90
8338;DHT22;4206;48.634;9.516;2023-01-28T05:00:32;-0.40;99.90
8338;DHT22;4206;48.634;9.516;2023-01-28T05:02:57;-0.40;99.90
8338;DHT22;4206;48.634;9.516;2023-01-28T05:05:23;-0.40;99.90
8338;DHT22;4206;48.634;9.516;2023-01-28T05:07:51;-0.40;99.90
8338;DHT22;4206;48.634;9.516;2023-01-28T05:10:17;-0.30;99.90
8338;DHT22;4206;48.634;9.516;2023-01-28T05:12:44;-0.30;99.90
8338;DHT22;4206;48.634;9.516;2023-01-28T05:15:10;-0.30;99.90
8338;DHT22;4206;48.634;9.516;2023-01-28T05:17:35;-0.30;99.90
8338;DHT22;4206;48.634;9.516;2023-01-28T05:20:01;-0.30;99.90
8338;DHT22;4206;48.634;9.516;2023-01-28T05:22:27;-0.30;99.90
8338;DHT22;4206;48.634;9.516;2023-01-28T05:24:53;-0.20;99.90
8338;DHT22;4206;48.634;9.516;2023-01-28T05:27:18;-0.20;99.90
8338;DHT22;4206;48.634;9.516;2023-01-28T05:29:44;-0.20;99.90
8338;DHT22;4206;48.634;9.516;2023-01-28T05:32:10;-0.30;99.90
8338;DHT22;4206;48.634;9.516;2023-01-28T05:34:36;-0.30;99.90
8338;DHT22;4206;48.634;9.516;2023-01-28T05:37:01;-0.30;99.90
8338;DHT22;4206;48.634;9.516;2023-01-28T05:39:27;-0.30;99.90
8338;DHT22;4206;48.634;9.516;2023-01-28T05:41:53;-0.40;99.90
8338;DHT22;4206;48.634;9.516;2023-01-28T05:44:19;-0.30;99.90
8338;DHT22;4206;48.634;9.516;2023-01-28T05:46:44;-0.40;99.90
8338;DHT22;4206;48.634;9.516;2023-01-28T05:49:11;-0.30;99.90
8338;DHT22;4206;48.634;9.516;2023-01-28T05:51:39;-0.40;99.90
8338;DHT22;4206;48.634;9.516;2023-01-28T05:54:05;-0.40;99.90
8338;DHT22;4206;48.634;9.516;2023-01-28T05:56:31;-0.40;99.90
8338;DHT22;4206;48.634;9.516;2023-01-28T05:58:59;-0.30;99.90
8338;DHT22;4206;48.634;9.516;2023-01-28T06:01:25;-0.30;99.90
8338;DHT22;4206;48.634;9.516;2023-01-28T06:03:51;-0.30;99.90
8338;DHT22;4206;48.634;9.516;2023-01-28T06:06:16;-0.30;99.90
8338;DHT22;4206;48.634;9.516;2023-01-28T06:08:42;-0.30;99.90
8338;DHT22;4206;48.634;9.516;2023-01-28T06:11:08;-0.30;99.90
8338;DHT22;4206;48.634;9.516;2023-01-28T06:13:33;-0.30;99.90
8338;DHT22;4206;48.634;9.516;2023-01-28T06:16:00;-0.40;99.90
8338;DHT22;4206;48.634;9.516;2023-01-28T06:18:25;-0.40;99.90
8338;DHT22;4206;48.634;9.516;2023-01-28T06:20:51;-0.40;99.90
8338;DHT22;4206;48.634;9.516;2023-01-28T06:23:17;-0.40;99.90
8338;DHT22;4206;48.634;9.516;2023-01-28T06:25:43;-0.40;99.90
8338;DHT22;4206;48.634;9.516;2023-01-28T06:28:08;-0.40;99.90
8338;DHT22;4206;48.634;9.516;2023-01-28T06:30:34;-0.40;99.90
8338;DHT22;4206;48.634;9.516;2023-01-28T06:33:00;-0.40;99.90
8338;DHT22;4206;48.634;9.516;2023-01-28T06:35:26;-0.50;99.90
8338;DHT22;4206;48.634;9.516;2023-01-28T06:37:52;-0.40;99.90
8338;DHT22;4206;48.634;9.516;2023-01-28T06:40:18;-0.40;99.90
8338;DHT22;4206;48.634;9.516;2023-01-28T06:42:44;-0.40;99.90
8338;DHT22;4206;48.634;9.516;2023-01-28T06:45:10;-0.50;99.90
8338;DHT22;4206;48.634;9.516;2023-01-28T06:47:38;-0.50;99.90
8338;DHT22;4206;48.634;9.516;2023-01-28T06:50:04;-0.50;99.90
8338;DHT22;4206;48.634;9.516;2023-01-28T06:52:30;-0.50;99.90
8338;DHT22;4206;48.634;9.516;2023-01-28T06:54:56;-0.50;99.90
8338;DHT22;4206;48.634;9.516;2023-01-28T06:57:21;-0.50;99.90
8338;DHT22;4206;48.634;9.516;2023-01-28T06:59:47;-0.50;99.90
8338;DHT22;4206;48.634;9.516;2023-01-28T07:02:13;-0.50;99.90
8338;DHT22;4206;48.634;9.516;2023-01-28T07:04:38;-0.50;99.90
8338;DHT22;4206;48.634;9.516;2023-01-28T07:07:04;-0.50;99.90
8338;DHT22;4206;48.634;9.516;2023-01-28T07:09:29;-0.50;99.90
8338;DHT22;4206;48.634;9.516;2023-01-28T07:11:55;-0.50;99.90
8338;DHT22;4206;48.634;9.516;2023-01-28T07:14:21;-0.50;99.90
8338;DHT22;4206;48.634;9.516;2023-01-28T07:16:46;-0.50;99.90
8338;DHT22;4206;48.634;9.516;2023-01-28T07:19:12;-0.40;99.90
8338;DHT22;4206;48.634;9.516;2023-01-28T07:21:37;-0.40;99.90
8338;DHT22;4206;48.634;9.516;2023-01-28T07:24:03;-0.40;99.90
8338;DHT22;4206;48.634;9.516;2023-01-28T07:26:29;-0.40;99.90
8338;DHT22;4206;48.634;9.516;2023-01-28T07:28:55;-0.30;99.90
8338;DHT22;4206;48.634;9.516;2023-01-28T07:31:21;-0.30;99.90
8338;DHT22;4206;48.634;9.516;2023-01-28T07:33:46;-0.30;99.90
8338;DHT22;4206;48.634;9.516;2023-01-28T07:36:12;-0.30;99.90
8338;DHT22;4206;48.634;9.516;2023-01-28T07:38:38;-0.30;99.90
8338;DHT22;4206;48.634;9.516;2023-01-28T07:41:03;-0.20;99.90
8338;DHT22;4206;48.634;9.516;2023-01-28T07:43:29;-0.20;99.90
8338;DHT22;4206;48.634;9.516;2023-01-28T07:45:55;-0.20;99.90
8338;DHT22;4206;48.634;9.516;2023-01-28T07:48:20;-0.20;99.90
8338;DHT22;4206;48.634;9.516;2023-01-28T07:50:46;-0.10;99.90
8338;DHT22;4206;48.634;9.516;2023-01-28T07:53:14;-0.10;99.90
8338;DHT22;4206;48.634;9.516;2023-01-28T07:55:39;0.00;99.90
8338;DHT22;4206;48.634;9.516;2023-01-28T07:58:06;0.10;99.90
8338;DHT22;4206;48.634;9.516;2023-01-28T08:00:35;0.20;99.90
8338;DHT22;4206;48.634;9.516;2023-01-28T08:03:04;0.20;99.90
8338;DHT22;4206;48.634;9.516;2023-01-28T08:05:46;0.30;99.90
8338;DHT22;4206;48.634;9.516;2023-01-28T08:08:12;0.30;99.90
8338;DHT22;4206;48.634;9.516;2023-01-28T08:10:39;0.40;99.90
8338;DHT22;4206;48.634;9.516;2023-01-28T08:13:05;0.40;99.90
8338;DHT22;4206;48.634;9.516;2023-01-28T08:15:32;0.40;99.90
8338;DHT22;4206;48.634;9.516;2023-01-28T08:17:58;0.40;99.90
8338;DHT22;4206;48.634;9.516;2023-01-28T08:20:26;0.40;99.90
8338;DHT22;4206;48.634;9.516;2023-01-28T08:22:52;0.50;99.90
8338;DHT22;4206;48.634;9.516;2023-01-28T08:25:18;0.50;99.90
8338;DHT22;4206;48.634;9.516;2023-01-28T08:27:44;0.50;99.90
8338;DHT22;4206;48.634;9.516;2023-01-28T08:30:10;0.60;99.90
8338;DHT22;4206;48.634;9.516;2023-01-28T08:32:36;0.70;99.90
8338;DHT22;4206;48.634;9.516;2023-01-28T08:35:02;0.70;99.90
8338;DHT22;4206;48.634;9.516;2023-01-28T08:37:28;0.70;99.90
8338;DHT22;4206;48.634;9.516;2023-01-28T08:39:53;0.80;99.90
8338;DHT22;4206;48.634;9.516;2023-01-28T08:42:19;0.80;99.90
8338;DHT22;4206;48.634;9.516;2023-01-28T08:44:45;0.90;99.90
8338;DHT22;4206;48.634;9.516;2023-01-28T08:47:12;0.90;99.90
8338;DHT22;4206;48.634;9.516;2023-01-28T08:49:39;0.90;99.90
8338;DHT22;4206;48.634;9.516;2023-01-28T08:52:05;0.90;99.90
8338;DHT22;4206;48.634;9.516;2023-01-28T08:54:31;1.00;99.90
8338;DHT22;4206;48.634;9.516;2023-01-28T08:56:57;1.10;99.90
8338;DHT22;4206;48.634;9.516;2023-01-28T08:59:23;1.10;99.90
8338;DHT22;4206;48.634;9.516;2023-01-28T09:01:48;1.10;99.90
8338;DHT22;4206;48.634;9.516;2023-01-28T09:04:14;1.20;99.90
8338;DHT22;4206;48.634;9.516;2023-01-28T09:06:40;1.30;99.90
8338;DHT22;4206;48.634;9.516;2023-01-28T09:09:05;1.30;99.90
8338;DHT22;4206;48.634;9.516;2023-01-28T09:11:31;1.40;99.90
8338;DHT22;4206;48.634;9.516;2023-01-28T09:13:57;1.40;99.90
8338;DHT22;4206;48.634;9.516;2023-01-28T09:16:23;1.50;99.90
8338;DHT22;4206;48.634;9.516;2023-01-28T09:18:48;1.50;99.90
8338;DHT22;4206;48.634;9.516;2023-01-28T09:21:16;1.50;99.90
8338;DHT22;4206;48.634;9.516;2023-01-28T09:23:41;1.60;99.90
8338;DHT22;4206;48.634;9.516;2023-01-28T09:26:07;1.60;99.90
8338;DHT22;4206;48.634;9.516;2023-01-28T09:28:34;1.70;99.90
8338;DHT22;4206;48.634;9.516;2023-01-28T09:31:01;1.80;99.90
8338;DHT22;4206;48.634;9.516;2023-01-28T09:33:27;1.80;99.90
8338;DHT22;4206;48.634;9.516;2023-01-28T09:35:53;1.90;99.90
8338;DHT22;4206;48.634;9.516;2023-01-28T09:38:19;2.10;99.90
8338;DHT22;4206;48.634;9.516;2023-01-28T09:40:44;2.10;99.90
8338;DHT22;4206;48.634;9.516;2023-01-28T09:43:28;2.20;99.90
8338;DHT22;4206;48.634;9.516;2023-01-28T09:46:03;2.20;99.90
8338;DHT22;4206;48.634;9.516;2023-01-28T09:48:33;2.10;99.90
8338;DHT22;4206;48.634;9.516;2023-01-28T09:51:02;2.10;99.90
8338;DHT22;4206;48.634;9.516;2023-01-28T09:53:38;2.10;99.90
8338;DHT22;4206;48.634;9.516;2023-01-28T09:56:12;2.10;99.90
8338;DHT22;4206;48.634;9.516;2023-01-28T09:58:41;2.20;99.90
8338;DHT22;4206;48.634;9.516;2023-01-28T10:04:24;2.30;99.90
8338;DHT22;4206;48.634;9.516;2023-01-28T10:12:30;2.40;99.90
8338;DHT22;4206;48.634;9.516;2023-01-28T10:18:03;2.70;99.90
8338;DHT22;4206;48.634;9.516;2023-01-28T10:20:36;2.80;99.90
8338;DHT22;4206;48.634;9.516;2023-01-28T10:23:17;2.90;99.90
8338;DHT22;4206;48.634;9.516;2023-01-28T10:25:47;3.10;99.90
8338;DHT22;4206;48.634;9.516;2023-01-28T10:28:19;3.10;99.90
8338;DHT22;4206;48.634;9.516;2023-01-28T10:30:46;3.10;99.90
8338;DHT22;4206;48.634;9.516;2023-01-28T10:33:27;2.90;99.90
8338;DHT22;4206;48.634;9.516;2023-01-28T10:35:55;3.00;99.90
8338;DHT22;4206;48.634;9.516;2023-01-28T10:38:23;3.10;99.90
8338;DHT22;4206;48.634;9.516;2023-01-28T10:40:49;3.10;99.90
8338;DHT22;4206;48.634;9.516;2023-01-28T10:43:18;3.10;99.90
8338;DHT22;4206;48.634;9.516;2023-01-28T10:48:37;3.20;99.90
8338;DHT22;4206;48.634;9.516;2023-01-28T10:51:05;3.30;99.90
8338;DHT22;4206;48.634;9.516;2023-01-28T10:53:40;3.30;99.90
8338;DHT22;4206;48.634;9.516;2023-01-28T10:56:10;3.20;99.90
8338;DHT22;4206;48.634;9.516;2023-01-28T10:58:53;3.00;99.90
8338;DHT22;4206;48.634;9.516;2023-01-28T11:01:22;3.00;99.90
8338;DHT22;4206;48.634;9.516;2023-01-28T11:03:57;2.90;99.90
8338;DHT22;4206;48.634;9.516;2023-01-28T11:06:26;2.80;99.90
8338;DHT22;4206;48.634;9.516;2023-01-28T11:08:52;2.80;99.90
8338;DHT22;4206;48.634;9.516;2023-01-28T11:11:26;2.80;99.90
8338;DHT22;4206;48.634;9.516;2023-01-28T11:13:52;2.80;99.90
8338;DHT22;4206;48.634;9.516;2023-01-28T11:16:19;2.70;99.90
8338;DHT22;4206;48.634;9.516;2023-01-28T11:18:57;2.70;99.90
8338;DHT22;4206;48.634;9.516;2023-01-28T11:21:27;2.70;99.90
8338;DHT22;4206;48.634;9.516;2023-01-28T11:23:54;2.70;99.90
8338;DHT22;4206;48.634;9.516;2023-01-28T11:26:23;2.60;99.90
8338;DHT22;4206;48.634;9.516;2023-01-28T11:28:50;2.60;99.90
8338;DHT22;4206;48.634;9.516;2023-01-28T11:31:18;2.50;99.90
8338;DHT22;4206;48.634;9.516;2023-01-28T11:36:15;2.50;99.90
8338;DHT22;4206;48.634;9.516;2023-01-28T11:38:58;2.50;99.90
8338;DHT22;4206;48.634;9.516;2023-01-28T11:41:27;2.50;99.90
8338;DHT22;4206;48.634;9.516;2023-01-28T11:43:54;2.50;99.90
8338;DHT22;4206;48.634;9.516;2023-01-28T11:54:59;2.50;99.90
8338;DHT22;4206;48.634;9.516;2023-01-28T12:05:17;2.30;99.90
8338;DHT22;4206;48.634;9.516;2023-01-28T12:10:51;2.30;99.90
8338;DHT22;4206;48.634;9.516;2023-01-28T12:13:32;2.30;99.90
8338;DHT22;4206;48.634;9.516;2023-01-28T12:16:07;2.40;99.90
8338;DHT22;4206;48.634;9.516;2023-01-28T12:18:44;2.40;99.90
8338;DHT22;4206;48.634;9.516;2023-01-28T12:29:48;2.40;99.90
8338;DHT22;4206;48.634;9.516;2023-01-28T12:32:36;2.40;99.90
8338;DHT22;4206;48.634;9.516;2023-01-28T12:45:39;2.30;99.90
8338;DHT22;4206;48.634;9.516;2023-01-28T12:48:23;2.40;99.90
8338;DHT22;4206;48.634;9.516;2023-01-28T12:51:03;2.50;99.90
8338;DHT22;4206;48.634;9.516;2023-01-28T12:56:16;2.60;99.90
8338;DHT22;4206;48.634;9.516;2023-01-28T12:58:48;2.70;99.90
8338;DHT22;4206;48.634;9.516;2023-01-28T13:01:20;2.80;99.90
8338;DHT22;4206;48.634;9.516;2023-01-28T13:03:53;3.30;99.90
8338;DHT22;4206;48.634;9.516;2023-01-28T13:06:39;4.70;99.90
8338;DHT22;4206;48.634;9.516;2023-01-28T13:09:17;5.70;99.90
8338;DHT22;4206;48.634;9.516;2023-01-28T13:11:45;7.50;99.90
8338;DHT22;4206;48.634;9.516;2023-01-28T13:14:11;8.20;99.90
8338;DHT22;4206;48.634;9.516;2023-01-28T13:21:33;9.10;99.90
8338;DHT22;4206;48.634;9.516;2023-01-28T13:29:07;7.40;99.90
8338;DHT22;4206;48.634;9.516;2023-01-28T13:31:38;6.90;99.90
8338;DHT22;4206;48.634;9.516;2023-01-28T13:34:05;6.10;99.90
8338;DHT22;4206;48.634;9.516;2023-01-28T13:41:38;4.80;99.90
8338;DHT22;4206;48.634;9.516;2023-01-28T13:47:12;4.20;99.90
8338;DHT22;4206;48.634;9.516;2023-01-28T13:49:45;4.00;99.90
8338;DHT22;4206;48.634;9.516;2023-01-28T13:52:27;3.70;99.90
8338;DHT22;4206;48.634;9.516;2023-01-28T14:05:34;3.10;99.90
8338;DHT22;4206;48.634;9.516;2023-01-28T14:08:23;3.10;99.90
8338;DHT22;4206;48.634;9.516;2023-01-28T14:11:13;2.90;99.90
8338;DHT22;4206;48.634;9.516;2023-01-28T14:16:43;2.90;99.90
8338;DHT22;4206;48.634;9.516;2023-01-28T14:19:19;2.80;99.90
8338;DHT22;4206;48.634;9.516;2023-01-28T14:21:46;2.70;99.90
8338;DHT22;4206;48.634;9.516;2023-01-28T14:24:15;2.60;99.90
8338;DHT22;4206;48.634;9.516;2023-01-28T14:26:48;2.60;99.90
8338;DHT22;4206;48.634;9.516;2023-01-28T14:29:34;2.50;99.90
8338;DHT22;4206;48.634;9.516;2023-01-28T14:32:11;2.40;99.90
8338;DHT22;4206;48.634;9.516;2023-01-28T14:34:40;2.40;99.90
8338;DHT22;4206;48.634;9.516;2023-01-28T14:37:11;2.30;99.90
8338;DHT22;4206;48.634;9.516;2023-01-28T14:39:49;2.30;99.90
8338;DHT22;4206;48.634;9.516;2023-01-28T14:42:26;2.30;99.90
8338;DHT22;4206;48.634;9.516;2023-01-28T14:53:31;2.20;99.90
8338;DHT22;4206;48.634;9.516;2023-01-28T14:56:23;2.20;99.90
8338;DHT22;4206;48.634;9.516;2023-01-28T14:58:56;2.20;99.90
8338;DHT22;4206;48.634;9.516;2023-01-28T15:01:27;2.20;99.90
8338;DHT22;4206;48.634;9.516;2023-01-28T15:03:52;2.00;99.90
8338;DHT22;4206;48.634;9.516;2023-01-28T15:06:22;1.90;99.90
8338;DHT22;4206;48.634;9.516;2023-01-28T15:08:49;1.90;99.90
8338;DHT22;4206;48.634;9.516;2023-01-28T15:11:18;1.80;99.90
8338;DHT22;4206;48.634;9.516;2023-01-28T15:13:48;1.80;99.90
8338;DHT22;4206;48.634;9.516;2023-01-28T15:16:22;1.70;99.90
8338;DHT22;4206;48.634;9.516;2023-01-28T15:18:48;1.70;99.90
8338;DHT22;4206;48.634;9.516;2023-01-28T15:21:24;1.60;99.90
8338;DHT22;4206;48.634;9.516;2023-01-28T15:23:54;1.60;99.90
8338;DHT22;4206;48.634;9.516;2023-01-28T15:26:23;1.60;99.90
8338;DHT22;4206;48.634;9.516;2023-01-28T15:28:50;1.50;99.90
8338;DHT22;4206;48.634;9.516;2023-01-28T15:31:20;1.50;99.90
8338;DHT22;4206;48.634;9.516;2023-01-28T15:33:56;1.60;99.90
8338;DHT22;4206;48.634;9.516;2023-01-28T15:36:22;1.50;99.90
8338;DHT22;4206;48.634;9.516;2023-01-28T15:38:48;1.50;99.90
8338;DHT22;4206;48.634;9.516;2023-01-28T15:41:15;1.40;99.90
8338;DHT22;4206;48.634;9.516;2023-01-28T15:43:46;1.50;99.90
8338;DHT22;4206;48.634;9.516;2023-01-28T15:46:13;1.40;99.90
8338;DHT22;4206;48.634;9.516;2023-01-28T15:48:43;1.40;99.90
8338;DHT22;4206;48.634;9.516;2023-01-28T15:51:19;1.40;99.90
8338;DHT22;4206;48.634;9.516;2023-01-28T15:53:50;1.40;99.90
8338;DHT22;4206;48.634;9.516;2023-01-28T15:56:24;1.40;99.90
8338;DHT22;4206;48.634;9.516;2023-01-28T15:58:51;1.40;99.90
8338;DHT22;4206;48.634;9.516;2023-01-28T16:01:18;1.40;99.90
8338;DHT22;4206;48.634;9.516;2023-01-28T16:03:46;1.30;99.90
8338;DHT22;4206;48.634;9.516;2023-01-28T16:06:16;1.30;99.90
8338;DHT22;4206;48.634;9.516;2023-01-28T16:11:23;1.30;99.90
8338;DHT22;4206;48.634;9.516;2023-01-28T16:13:50;1.30;99.90
8338;DHT22;4206;48.634;9.516;2023-01-28T16:16:26;1.30;99.90
8338;DHT22;4206;48.634;9.516;2023-01-28T16:18:53;1.20;99.90
8338;DHT22;4206;48.634;9.516;2023-01-28T16:21:25;1.20;99.90
8338;DHT22;4206;48.634;9.516;2023-01-28T16:26:26;1.10;99.90
8338;DHT22;4206;48.634;9.516;2023-01-28T16:28:52;1.10;99.90
8338;DHT22;4206;48.634;9.516;2023-01-28T16:31:18;1.10;99.90
8338;DHT22;4206;48.634;9.516;2023-01-28T16:33:44;1.10;99.90
8338;DHT22;4206;48.634;9.516;2023-01-28T16:36:13;1.10;99.90
8338;DHT22;4206;48.634;9.516;2023-01-28T16:38:39;1.10;99.90
8338;DHT22;4206;48.634;9.516;2023-01-28T16:41:11;1.10;99.90
8338;DHT22;4206;48.634;9.516;2023-01-28T16:43:37;1.10;99.90
8338;DHT22;4206;48.634;9.516;2023-01-28T16:46:03;1.10;99.90
8338;DHT22;4206;48.634;9.516;2023-01-28T16:48:28;1.00;99.90
8338;DHT22;4206;48.634;9.516;2023-01-28T16:50:55;1.00;99.90
8338;DHT22;4206;48.634;9.516;2023-01-28T16:53:27;1.00;99.90
8338;DHT22;4206;48.634;9.516;2023-01-28T16:55:53;1.10;99.90
8338;DHT22;4206;48.634;9.516;2023-01-28T16:58:23;1.00;99.90
8338;DHT22;4206;48.634;9.516;2023-01-28T17:00:49;1.00;99.90
8338;DHT22;4206;48.634;9.516;2023-01-28T17:03:15;1.00;99.90
8338;DHT22;4206;48.634;9.516;2023-01-28T17:05:41;1.00;99.90
8338;DHT22;4206;48.634;9.516;2023-01-28T17:08:06;1.00;99.90
8338;DHT22;4206;48.634;9.516;2023-01-28T17:10:33;1.00;99.90
8338;DHT22;4206;48.634;9.516;2023-01-28T17:12:59;1.00;99.90
8338;DHT22;4206;48.634;9.516;2023-01-28T17:15:25;1.00;99.90
8338;DHT22;4206;48.634;9.516;2023-01-28T17:17:50;1.00;99.90
8338;DHT22;4206;48.634;9.516;2023-01-28T17:20:18;1.00;99.90
8338;DHT22;4206;48.634;9.516;2023-01-28T17:22:44;1.00;99.90
8338;DHT22;4206;48.634;9.516;2023-01-28T17:25:10;1.00;99.90
8338;DHT22;4206;48.634;9.516;2023-01-28T17:27:36;1.00;99.90
8338;DHT22;4206;48.634;9.516;2023-01-28T17:30:01;1.00;99.90
8338;DHT22;4206;48.634;9.516;2023-01-28T17:32:27;1.00;99.90
8338;DHT22;4206;48.634;9.516;2023-01-28T17:34:53;1.00;99.90
8338;DHT22;4206;48.634;9.516;2023-01-28T17:37:18;0.90;99.90
8338;DHT22;4206;48.634;9.516;2023-01-28T17:39:44;0.90;99.90
8338;DHT22;4206;48.634;9.516;2023-01-28T17:42:09;0.90;99.90
8338;DHT22;4206;48.634;9.516;2023-01-28T17:44:35;0.90;99.90
8338;DHT22;4206;48.634;9.516;2023-01-28T17:47:01;0.90;99.90
8338;DHT22;4206;48.634;9.516;2023-01-28T17:49:26;0.90;99.90
8338;DHT22;4206;48.634;9.516;2023-01-28T17:51:52;0.90;99.90
8338;DHT22;4206;48.634;9.516;2023-01-28T17:54:18;0.90;99.90
8338;DHT22;4206;48.634;9.516;2023-01-28T17:56:44;0.90;99.90
8338;DHT22;4206;48.634;9.516;2023-01-28T17:59:09;0.90;99.90
8338;DHT22;4206;48.634;9.516;2023-01-28T18:01:36;0.90;99.90
8338;DHT22;4206;48.634;9.516;2023-01-28T18:04:03;0.90;99.90
8338;DHT22;4206;48.634;9.516;2023-01-28T18:06:31;0.90;99.90
8338;DHT22;4206;48.634;9.516;2023-01-28T18:08:57;0.90;99.90
8338;DHT22;4206;48.634;9.516;2023-01-28T18:11:23;0.90;99.90
8338;DHT22;4206;48.634;9.516;2023-01-28T18:13:48;0.90;99.90
8338;DHT22;4206;48.634;9.516;2023-01-28T18:16:16;0.90;99.90
8338;DHT22;4206;48.634;9.516;2023-01-28T18:18:42;0.90;99.90
8338;DHT22;4206;48.634;9.516;2023-01-28T18:21:19;0.90;99.90
8338;DHT22;4206;48.634;9.516;2023-01-28T18:23:45;0.80;99.90